<?xml version="1.0" encoding="UTF-8" standalone="no" ?>
<gpx xmlns="http://www.topografix.com/GPX/1/1" xmlns:xsi="http://www.w3.org/2001/XMLSchema-instance" xsi:schemaLocation="http://www.topografix.com/GPX/1/1 http://www.topografix.com/GPX/1/1/gpx.xsd" version="1.1" creator="VisuGPX - https://www.visugpx.com">
  <metadata>
    <name>Circuit 9.5 km CHAHAIGNES</name>
  </metadata>
  <trk>
    <name><![CDATA[11171458-OTVL CHAHAIGNES]]></name>
    <trkseg>
      <trkpt lat="47.74115" lon="0.51502">
        <ele>65</ele>
        <time>2020-04-02T07:33:26Z</time>
      </trkpt>
      <trkpt lat="47.74148" lon="0.5149">
        <ele>67</ele>
        <time>2020-04-02T07:34:11Z</time>
      </trkpt>
      <trkpt lat="47.7414" lon="0.51431">
        <ele>67</ele>
        <time>2020-04-02T07:35:05Z</time>
      </trkpt>
      <trkpt lat="47.74179" lon="0.51446">
        <ele>69</ele>
        <time>2020-04-02T07:35:59Z</time>
      </trkpt>
      <trkpt lat="47.74182" lon="0.51447">
        <ele>69</ele>
        <time>2020-04-02T07:36:03Z</time>
      </trkpt>
      <trkpt lat="47.74187" lon="0.51448">
        <ele>69</ele>
        <time>2020-04-02T07:36:10Z</time>
      </trkpt>
      <trkpt lat="47.74195" lon="0.51448">
        <ele>70</ele>
        <time>2020-04-02T07:36:21Z</time>
      </trkpt>
      <trkpt lat="47.74204" lon="0.51442">
        <ele>70</ele>
        <time>2020-04-02T07:36:34Z</time>
      </trkpt>
      <trkpt lat="47.74214" lon="0.51434">
        <ele>70</ele>
        <time>2020-04-02T07:36:49Z</time>
      </trkpt>
      <trkpt lat="47.74246" lon="0.51404">
        <ele>72</ele>
        <time>2020-04-02T07:37:39Z</time>
      </trkpt>
      <trkpt lat="47.74273" lon="0.51379">
        <ele>73</ele>
        <time>2020-04-02T07:38:22Z</time>
      </trkpt>
      <trkpt lat="47.74301" lon="0.51345">
        <ele>74</ele>
        <time>2020-04-02T07:39:10Z</time>
      </trkpt>
      <trkpt lat="47.74333" lon="0.51308">
        <ele>75</ele>
        <time>2020-04-02T07:40:04Z</time>
      </trkpt>
      <trkpt lat="47.74355" lon="0.51288">
        <ele>74</ele>
        <time>2020-04-02T07:40:39Z</time>
      </trkpt>
      <trkpt lat="47.74373" lon="0.51278">
        <ele>74</ele>
        <time>2020-04-02T07:41:04Z</time>
      </trkpt>
      <trkpt lat="47.74386" lon="0.51275">
        <ele>73</ele>
        <time>2020-04-02T07:41:22Z</time>
      </trkpt>
      <trkpt lat="47.74402" lon="0.51265">
        <ele>73</ele>
        <time>2020-04-02T07:41:45Z</time>
      </trkpt>
      <trkpt lat="47.74418" lon="0.51254">
        <ele>73</ele>
        <time>2020-04-02T07:42:08Z</time>
      </trkpt>
      <trkpt lat="47.74446" lon="0.51316">
        <ele>70</ele>
        <time>2020-04-02T07:43:15Z</time>
      </trkpt>
      <trkpt lat="47.74483" lon="0.514">
        <ele>72</ele>
        <time>2020-04-02T07:44:46Z</time>
      </trkpt>
      <trkpt lat="47.74497" lon="0.5143">
        <ele>74</ele>
        <time>2020-04-02T07:45:18Z</time>
      </trkpt>
      <trkpt lat="47.74507" lon="0.51445">
        <ele>75</ele>
        <time>2020-04-02T07:45:37Z</time>
      </trkpt>
      <trkpt lat="47.74516" lon="0.51456">
        <ele>76</ele>
        <time>2020-04-02T07:45:53Z</time>
      </trkpt>
      <trkpt lat="47.74522" lon="0.51457">
        <ele>77</ele>
        <time>2020-04-02T07:46:01Z</time>
      </trkpt>
      <trkpt lat="47.74608" lon="0.51453">
        <ele>77</ele>
        <time>2020-04-02T07:47:56Z</time>
      </trkpt>
      <trkpt lat="47.74647" lon="0.51449">
        <ele>77</ele>
        <time>2020-04-02T07:48:48Z</time>
      </trkpt>
      <trkpt lat="47.74666" lon="0.5145">
        <ele>78</ele>
        <time>2020-04-02T07:49:13Z</time>
      </trkpt>
      <trkpt lat="47.74675" lon="0.51444">
        <ele>78</ele>
        <time>2020-04-02T07:49:26Z</time>
      </trkpt>
      <trkpt lat="47.74682" lon="0.51436">
        <ele>77</ele>
        <time>2020-04-02T07:49:38Z</time>
      </trkpt>
      <trkpt lat="47.74698" lon="0.51408">
        <ele>74</ele>
        <time>2020-04-02T07:50:11Z</time>
      </trkpt>
      <trkpt lat="47.74712" lon="0.51384">
        <ele>74</ele>
        <time>2020-04-02T07:50:40Z</time>
      </trkpt>
      <trkpt lat="47.74753" lon="0.5131">
        <ele>73</ele>
        <time>2020-04-02T07:52:06Z</time>
      </trkpt>
      <trkpt lat="47.74768" lon="0.5128">
        <ele>74</ele>
        <time>2020-04-02T07:52:39Z</time>
      </trkpt>
      <trkpt lat="47.7478" lon="0.51258">
        <ele>73</ele>
        <time>2020-04-02T07:53:05Z</time>
      </trkpt>
      <trkpt lat="47.74774" lon="0.51254">
        <ele>72</ele>
        <time>2020-04-02T07:53:13Z</time>
      </trkpt>
      <trkpt lat="47.74753" lon="0.51233">
        <ele>70</ele>
        <time>2020-04-02T07:53:47Z</time>
      </trkpt>
      <trkpt lat="47.74746" lon="0.51222">
        <ele>70</ele>
        <time>2020-04-02T07:54:01Z</time>
      </trkpt>
      <trkpt lat="47.7475" lon="0.51211">
        <ele>70</ele>
        <time>2020-04-02T07:54:12Z</time>
      </trkpt>
      <trkpt lat="47.74761" lon="0.51177">
        <ele>71</ele>
        <time>2020-04-02T07:54:46Z</time>
      </trkpt>
      <trkpt lat="47.74768" lon="0.51162">
        <ele>71</ele>
        <time>2020-04-02T07:55:02Z</time>
      </trkpt>
      <trkpt lat="47.74778" lon="0.51156">
        <ele>72</ele>
        <time>2020-04-02T07:55:17Z</time>
      </trkpt>
      <trkpt lat="47.74802" lon="0.51144">
        <ele>72</ele>
        <time>2020-04-02T07:55:50Z</time>
      </trkpt>
      <trkpt lat="47.74816" lon="0.51141">
        <ele>73</ele>
        <time>2020-04-02T07:56:09Z</time>
      </trkpt>
      <trkpt lat="47.74831" lon="0.5114">
        <ele>73</ele>
        <time>2020-04-02T07:56:29Z</time>
      </trkpt>
      <trkpt lat="47.74842" lon="0.51135">
        <ele>74</ele>
        <time>2020-04-02T07:56:45Z</time>
      </trkpt>
      <trkpt lat="47.74848" lon="0.5113">
        <ele>74</ele>
        <time>2020-04-02T07:56:54Z</time>
      </trkpt>
      <trkpt lat="47.74855" lon="0.5111">
        <ele>75</ele>
        <time>2020-04-02T07:57:14Z</time>
      </trkpt>
      <trkpt lat="47.74867" lon="0.51075">
        <ele>78</ele>
        <time>2020-04-02T07:57:49Z</time>
      </trkpt>
      <trkpt lat="47.74874" lon="0.51046">
        <ele>80</ele>
        <time>2020-04-02T07:58:17Z</time>
      </trkpt>
      <trkpt lat="47.74877" lon="0.51018">
        <ele>81</ele>
        <time>2020-04-02T07:58:42Z</time>
      </trkpt>
      <trkpt lat="47.74881" lon="0.50998">
        <ele>82</ele>
        <time>2020-04-02T07:59:01Z</time>
      </trkpt>
      <trkpt lat="47.74883" lon="0.50979">
        <ele>82</ele>
        <time>2020-04-02T07:59:18Z</time>
      </trkpt>
      <trkpt lat="47.74888" lon="0.50952">
        <ele>83</ele>
        <time>2020-04-02T07:59:44Z</time>
      </trkpt>
      <trkpt lat="47.74896" lon="0.5093">
        <ele>83</ele>
        <time>2020-04-02T08:00:06Z</time>
      </trkpt>
      <trkpt lat="47.74888" lon="0.50922">
        <ele>82</ele>
        <time>2020-04-02T08:00:19Z</time>
      </trkpt>
      <trkpt lat="47.74875" lon="0.50914">
        <ele>81</ele>
        <time>2020-04-02T08:00:38Z</time>
      </trkpt>
      <trkpt lat="47.74861" lon="0.50908">
        <ele>79</ele>
        <time>2020-04-02T08:00:57Z</time>
      </trkpt>
      <trkpt lat="47.74844" lon="0.50905">
        <ele>77</ele>
        <time>2020-04-02T08:01:20Z</time>
      </trkpt>
      <trkpt lat="47.74832" lon="0.50901">
        <ele>75</ele>
        <time>2020-04-02T08:01:36Z</time>
      </trkpt>
      <trkpt lat="47.74832" lon="0.50892">
        <ele>76</ele>
        <time>2020-04-02T08:01:44Z</time>
      </trkpt>
      <trkpt lat="47.74832" lon="0.50864">
        <ele>76</ele>
        <time>2020-04-02T08:02:10Z</time>
      </trkpt>
      <trkpt lat="47.7483" lon="0.50833">
        <ele>77</ele>
        <time>2020-04-02T08:02:38Z</time>
      </trkpt>
      <trkpt lat="47.74831" lon="0.508">
        <ele>78</ele>
        <time>2020-04-02T08:03:07Z</time>
      </trkpt>
      <trkpt lat="47.7483" lon="0.5078">
        <ele>78</ele>
        <time>2020-04-02T08:03:25Z</time>
      </trkpt>
      <trkpt lat="47.74827" lon="0.5077">
        <ele>79</ele>
        <time>2020-04-02T08:03:35Z</time>
      </trkpt>
      <trkpt lat="47.74822" lon="0.50756">
        <ele>79</ele>
        <time>2020-04-02T08:03:49Z</time>
      </trkpt>
      <trkpt lat="47.74867" lon="0.50683">
        <ele>83</ele>
        <time>2020-04-02T08:05:18Z</time>
      </trkpt>
      <trkpt lat="47.74927" lon="0.50583">
        <ele>85</ele>
        <time>2020-04-02T08:07:18Z</time>
      </trkpt>
      <trkpt lat="47.74942" lon="0.50557">
        <ele>87</ele>
        <time>2020-04-02T08:07:49Z</time>
      </trkpt>
      <trkpt lat="47.74957" lon="0.50566">
        <ele>89</ele>
        <time>2020-04-02T08:08:11Z</time>
      </trkpt>
      <trkpt lat="47.75008" lon="0.50591">
        <ele>97</ele>
        <time>2020-04-02T08:09:22Z</time>
      </trkpt>
      <trkpt lat="47.7505" lon="0.50607">
        <ele>101</ele>
        <time>2020-04-02T08:10:20Z</time>
      </trkpt>
      <trkpt lat="47.75087" lon="0.50614">
        <ele>104</ele>
        <time>2020-04-02T08:11:10Z</time>
      </trkpt>
      <trkpt lat="47.75119" lon="0.50622">
        <ele>107</ele>
        <time>2020-04-02T08:11:53Z</time>
      </trkpt>
      <trkpt lat="47.75139" lon="0.50623">
        <ele>108</ele>
        <time>2020-04-02T08:12:20Z</time>
      </trkpt>
      <trkpt lat="47.75152" lon="0.50621">
        <ele>109</ele>
        <time>2020-04-02T08:12:37Z</time>
      </trkpt>
      <trkpt lat="47.75171" lon="0.5061">
        <ele>110</ele>
        <time>2020-04-02T08:13:05Z</time>
      </trkpt>
      <trkpt lat="47.752" lon="0.50589">
        <ele>111</ele>
        <time>2020-04-02T08:13:48Z</time>
      </trkpt>
      <trkpt lat="47.75224" lon="0.50572">
        <ele>112</ele>
        <time>2020-04-02T08:14:23Z</time>
      </trkpt>
      <trkpt lat="47.75246" lon="0.50559">
        <ele>112</ele>
        <time>2020-04-02T08:14:55Z</time>
      </trkpt>
      <trkpt lat="47.75266" lon="0.50551">
        <ele>113</ele>
        <time>2020-04-02T08:15:22Z</time>
      </trkpt>
      <trkpt lat="47.75286" lon="0.50546">
        <ele>114</ele>
        <time>2020-04-02T08:15:49Z</time>
      </trkpt>
      <trkpt lat="47.7531" lon="0.50539">
        <ele>115</ele>
        <time>2020-04-02T08:16:22Z</time>
      </trkpt>
      <trkpt lat="47.75319" lon="0.50537">
        <ele>116</ele>
        <time>2020-04-02T08:16:34Z</time>
      </trkpt>
      <trkpt lat="47.75328" lon="0.50536">
        <ele>116</ele>
        <time>2020-04-02T08:16:46Z</time>
      </trkpt>
      <trkpt lat="47.75332" lon="0.50532">
        <ele>116</ele>
        <time>2020-04-02T08:16:53Z</time>
      </trkpt>
      <trkpt lat="47.75336" lon="0.50524">
        <ele>116</ele>
        <time>2020-04-02T08:17:02Z</time>
      </trkpt>
      <trkpt lat="47.75333" lon="0.50476">
        <ele>115</ele>
        <time>2020-04-02T08:17:45Z</time>
      </trkpt>
      <trkpt lat="47.7533" lon="0.50378">
        <ele>112</ele>
        <time>2020-04-02T08:19:13Z</time>
      </trkpt>
      <trkpt lat="47.75325" lon="0.50359">
        <ele>111</ele>
        <time>2020-04-02T08:19:31Z</time>
      </trkpt>
      <trkpt lat="47.75322" lon="0.50346">
        <ele>111</ele>
        <time>2020-04-02T08:19:44Z</time>
      </trkpt>
      <trkpt lat="47.75316" lon="0.50333">
        <ele>110</ele>
        <time>2020-04-02T08:19:58Z</time>
      </trkpt>
      <trkpt lat="47.7531" lon="0.50323">
        <ele>110</ele>
        <time>2020-04-02T08:20:10Z</time>
      </trkpt>
      <trkpt lat="47.75303" lon="0.50315">
        <ele>110</ele>
        <time>2020-04-02T08:20:21Z</time>
      </trkpt>
      <trkpt lat="47.75289" lon="0.50302">
        <ele>109</ele>
        <time>2020-04-02T08:20:43Z</time>
      </trkpt>
      <trkpt lat="47.7528" lon="0.50296">
        <ele>109</ele>
        <time>2020-04-02T08:20:57Z</time>
      </trkpt>
      <trkpt lat="47.75275" lon="0.50288">
        <ele>109</ele>
        <time>2020-04-02T08:21:06Z</time>
      </trkpt>
      <trkpt lat="47.75268" lon="0.50279">
        <ele>109</ele>
        <time>2020-04-02T08:21:19Z</time>
      </trkpt>
      <trkpt lat="47.75266" lon="0.50268">
        <ele>109</ele>
        <time>2020-04-02T08:21:29Z</time>
      </trkpt>
      <trkpt lat="47.75265" lon="0.50257">
        <ele>109</ele>
        <time>2020-04-02T08:21:39Z</time>
      </trkpt>
      <trkpt lat="47.75267" lon="0.50244">
        <ele>109</ele>
        <time>2020-04-02T08:21:51Z</time>
      </trkpt>
      <trkpt lat="47.75274" lon="0.50226">
        <ele>108</ele>
        <time>2020-04-02T08:22:10Z</time>
      </trkpt>
      <trkpt lat="47.75284" lon="0.50203">
        <ele>108</ele>
        <time>2020-04-02T08:22:34Z</time>
      </trkpt>
      <trkpt lat="47.75293" lon="0.50177">
        <ele>107</ele>
        <time>2020-04-02T08:23:00Z</time>
      </trkpt>
      <trkpt lat="47.75303" lon="0.50139">
        <ele>105</ele>
        <time>2020-04-02T08:23:37Z</time>
      </trkpt>
      <trkpt lat="47.75311" lon="0.50111">
        <ele>103</ele>
        <time>2020-04-02T08:24:04Z</time>
      </trkpt>
      <trkpt lat="47.75323" lon="0.50073">
        <ele>101</ele>
        <time>2020-04-02T08:24:42Z</time>
      </trkpt>
      <trkpt lat="47.75327" lon="0.50047">
        <ele>100</ele>
        <time>2020-04-02T08:25:06Z</time>
      </trkpt>
      <trkpt lat="47.75327" lon="0.5003">
        <ele>99</ele>
        <time>2020-04-02T08:25:21Z</time>
      </trkpt>
      <trkpt lat="47.75326" lon="0.50017">
        <ele>98</ele>
        <time>2020-04-02T08:25:33Z</time>
      </trkpt>
      <trkpt lat="47.75319" lon="0.50019">
        <ele>98</ele>
        <time>2020-04-02T08:25:42Z</time>
      </trkpt>
      <trkpt lat="47.75305" lon="0.50024">
        <ele>98</ele>
        <time>2020-04-02T08:26:02Z</time>
      </trkpt>
      <trkpt lat="47.75289" lon="0.50024">
        <ele>97</ele>
        <time>2020-04-02T08:26:23Z</time>
      </trkpt>
      <trkpt lat="47.75275" lon="0.50026">
        <ele>96</ele>
        <time>2020-04-02T08:26:42Z</time>
      </trkpt>
      <trkpt lat="47.7525" lon="0.50025">
        <ele>95</ele>
        <time>2020-04-02T08:27:15Z</time>
      </trkpt>
      <trkpt lat="47.75224" lon="0.50027">
        <ele>94</ele>
        <time>2020-04-02T08:27:50Z</time>
      </trkpt>
      <trkpt lat="47.75192" lon="0.50036">
        <ele>93</ele>
        <time>2020-04-02T08:28:33Z</time>
      </trkpt>
      <trkpt lat="47.75182" lon="0.50043">
        <ele>93</ele>
        <time>2020-04-02T08:28:48Z</time>
      </trkpt>
      <trkpt lat="47.7517" lon="0.50054">
        <ele>92</ele>
        <time>2020-04-02T08:29:07Z</time>
      </trkpt>
      <trkpt lat="47.75155" lon="0.50075">
        <ele>91</ele>
        <time>2020-04-02T08:29:34Z</time>
      </trkpt>
      <trkpt lat="47.75133" lon="0.50104">
        <ele>92</ele>
        <time>2020-04-02T08:30:14Z</time>
      </trkpt>
      <trkpt lat="47.75109" lon="0.5013">
        <ele>92</ele>
        <time>2020-04-02T08:30:53Z</time>
      </trkpt>
      <trkpt lat="47.75092" lon="0.50143">
        <ele>92</ele>
        <time>2020-04-02T08:31:19Z</time>
      </trkpt>
      <trkpt lat="47.75077" lon="0.50155">
        <ele>91</ele>
        <time>2020-04-02T08:31:41Z</time>
      </trkpt>
      <trkpt lat="47.75066" lon="0.50123">
        <ele>91</ele>
        <time>2020-04-02T08:32:14Z</time>
      </trkpt>
      <trkpt lat="47.75041" lon="0.50059">
        <ele>94</ele>
        <time>2020-04-02T08:33:20Z</time>
      </trkpt>
      <trkpt lat="47.75027" lon="0.50026">
        <ele>97</ele>
        <time>2020-04-02T08:33:55Z</time>
      </trkpt>
      <trkpt lat="47.75023" lon="0.49998">
        <ele>99</ele>
        <time>2020-04-02T08:34:21Z</time>
      </trkpt>
      <trkpt lat="47.75024" lon="0.49962">
        <ele>102</ele>
        <time>2020-04-02T08:34:53Z</time>
      </trkpt>
      <trkpt lat="47.75023" lon="0.49945">
        <ele>103</ele>
        <time>2020-04-02T08:35:08Z</time>
      </trkpt>
      <trkpt lat="47.75015" lon="0.49913">
        <ele>106</ele>
        <time>2020-04-02T08:35:39Z</time>
      </trkpt>
      <trkpt lat="47.75004" lon="0.49868">
        <ele>110</ele>
        <time>2020-04-02T08:36:22Z</time>
      </trkpt>
      <trkpt lat="47.75001" lon="0.49848">
        <ele>111</ele>
        <time>2020-04-02T08:36:40Z</time>
      </trkpt>
      <trkpt lat="47.74993" lon="0.49841">
        <ele>112</ele>
        <time>2020-04-02T08:36:53Z</time>
      </trkpt>
      <trkpt lat="47.74985" lon="0.4983">
        <ele>113</ele>
        <time>2020-04-02T08:37:07Z</time>
      </trkpt>
      <trkpt lat="47.74978" lon="0.49819">
        <ele>114</ele>
        <time>2020-04-02T08:37:21Z</time>
      </trkpt>
      <trkpt lat="47.7497" lon="0.49808">
        <ele>114</ele>
        <time>2020-04-02T08:37:36Z</time>
      </trkpt>
      <trkpt lat="47.74962" lon="0.49799">
        <ele>115</ele>
        <time>2020-04-02T08:37:49Z</time>
      </trkpt>
      <trkpt lat="47.74957" lon="0.49789">
        <ele>116</ele>
        <time>2020-04-02T08:38:00Z</time>
      </trkpt>
      <trkpt lat="47.7495" lon="0.49777">
        <ele>117</ele>
        <time>2020-04-02T08:38:14Z</time>
      </trkpt>
      <trkpt lat="47.74945" lon="0.49761">
        <ele>118</ele>
        <time>2020-04-02T08:38:30Z</time>
      </trkpt>
      <trkpt lat="47.74942" lon="0.49734">
        <ele>119</ele>
        <time>2020-04-02T08:38:55Z</time>
      </trkpt>
      <trkpt lat="47.74933" lon="0.49693">
        <ele>120</ele>
        <time>2020-04-02T08:39:33Z</time>
      </trkpt>
      <trkpt lat="47.74924" lon="0.49654">
        <ele>121</ele>
        <time>2020-04-02T08:40:10Z</time>
      </trkpt>
      <trkpt lat="47.74918" lon="0.49611">
        <ele>121</ele>
        <time>2020-04-02T08:40:50Z</time>
      </trkpt>
      <trkpt lat="47.74909" lon="0.49546">
        <ele>122</ele>
        <time>2020-04-02T08:41:49Z</time>
      </trkpt>
      <trkpt lat="47.74912" lon="0.49539">
        <ele>122</ele>
        <time>2020-04-02T08:41:57Z</time>
      </trkpt>
      <trkpt lat="47.74918" lon="0.49516">
        <ele>123</ele>
        <time>2020-04-02T08:42:19Z</time>
      </trkpt>
      <trkpt lat="47.74924" lon="0.49486">
        <ele>123</ele>
        <time>2020-04-02T08:42:47Z</time>
      </trkpt>
      <trkpt lat="47.74931" lon="0.49457">
        <ele>123</ele>
        <time>2020-04-02T08:43:15Z</time>
      </trkpt>
      <trkpt lat="47.74934" lon="0.49436">
        <ele>123</ele>
        <time>2020-04-02T08:43:34Z</time>
      </trkpt>
      <trkpt lat="47.74943" lon="0.49376">
        <ele>124</ele>
        <time>2020-04-02T08:44:29Z</time>
      </trkpt>
      <trkpt lat="47.74943" lon="0.49356">
        <ele>124</ele>
        <time>2020-04-02T08:44:47Z</time>
      </trkpt>
      <trkpt lat="47.74939" lon="0.49327">
        <ele>124</ele>
        <time>2020-04-02T08:45:14Z</time>
      </trkpt>
      <trkpt lat="47.74936" lon="0.49311">
        <ele>124</ele>
        <time>2020-04-02T08:45:29Z</time>
      </trkpt>
      <trkpt lat="47.7494" lon="0.49303">
        <ele>124</ele>
        <time>2020-04-02T08:45:37Z</time>
      </trkpt>
      <trkpt lat="47.74943" lon="0.49294">
        <ele>124</ele>
        <time>2020-04-02T08:45:46Z</time>
      </trkpt>
      <trkpt lat="47.74939" lon="0.49274">
        <ele>123</ele>
        <time>2020-04-02T08:46:05Z</time>
      </trkpt>
      <trkpt lat="47.74925" lon="0.49247">
        <ele>122</ele>
        <time>2020-04-02T08:46:36Z</time>
      </trkpt>
      <trkpt lat="47.74914" lon="0.49217">
        <ele>120</ele>
        <time>2020-04-02T08:47:06Z</time>
      </trkpt>
      <trkpt lat="47.74909" lon="0.49205">
        <ele>120</ele>
        <time>2020-04-02T08:47:19Z</time>
      </trkpt>
      <trkpt lat="47.74905" lon="0.49199">
        <ele>119</ele>
        <time>2020-04-02T08:47:27Z</time>
      </trkpt>
      <trkpt lat="47.74899" lon="0.49195">
        <ele>119</ele>
        <time>2020-04-02T08:47:35Z</time>
      </trkpt>
      <trkpt lat="47.74895" lon="0.4919">
        <ele>119</ele>
        <time>2020-04-02T08:47:42Z</time>
      </trkpt>
      <trkpt lat="47.74893" lon="0.4918">
        <ele>118</ele>
        <time>2020-04-02T08:47:52Z</time>
      </trkpt>
      <trkpt lat="47.74889" lon="0.4917">
        <ele>118</ele>
        <time>2020-04-02T08:48:02Z</time>
      </trkpt>
      <trkpt lat="47.74883" lon="0.49158">
        <ele>117</ele>
        <time>2020-04-02T08:48:16Z</time>
      </trkpt>
      <trkpt lat="47.74866" lon="0.4914">
        <ele>116</ele>
        <time>2020-04-02T08:48:44Z</time>
      </trkpt>
      <trkpt lat="47.74835" lon="0.49103">
        <ele>115</ele>
        <time>2020-04-02T08:49:37Z</time>
      </trkpt>
      <trkpt lat="47.74809" lon="0.49069">
        <ele>111</ele>
        <time>2020-04-02T08:50:23Z</time>
      </trkpt>
      <trkpt lat="47.74778" lon="0.49032">
        <ele>105</ele>
        <time>2020-04-02T08:51:16Z</time>
      </trkpt>
      <trkpt lat="47.74755" lon="0.49005">
        <ele>101</ele>
        <time>2020-04-02T08:51:55Z</time>
      </trkpt>
      <trkpt lat="47.74731" lon="0.48981">
        <ele>100</ele>
        <time>2020-04-02T08:52:33Z</time>
      </trkpt>
      <trkpt lat="47.74728" lon="0.48966">
        <ele>100</ele>
        <time>2020-04-02T08:52:48Z</time>
      </trkpt>
      <trkpt lat="47.74723" lon="0.48967">
        <ele>100</ele>
        <time>2020-04-02T08:52:54Z</time>
      </trkpt>
      <trkpt lat="47.74718" lon="0.48963">
        <ele>100</ele>
        <time>2020-04-02T08:53:02Z</time>
      </trkpt>
      <trkpt lat="47.747" lon="0.48933">
        <ele>101</ele>
        <time>2020-04-02T08:53:38Z</time>
      </trkpt>
      <trkpt lat="47.74686" lon="0.48907">
        <ele>102</ele>
        <time>2020-04-02T08:54:08Z</time>
      </trkpt>
      <trkpt lat="47.74669" lon="0.48886">
        <ele>102</ele>
        <time>2020-04-02T08:54:37Z</time>
      </trkpt>
      <trkpt lat="47.74659" lon="0.48879">
        <ele>102</ele>
        <time>2020-04-02T08:54:52Z</time>
      </trkpt>
      <trkpt lat="47.7456" lon="0.48803">
        <ele>108</ele>
        <time>2020-04-02T08:57:21Z</time>
      </trkpt>
      <trkpt lat="47.74552" lon="0.4879">
        <ele>109</ele>
        <time>2020-04-02T08:57:37Z</time>
      </trkpt>
      <trkpt lat="47.74464" lon="0.48743">
        <ele>113</ele>
        <time>2020-04-02T08:59:41Z</time>
      </trkpt>
      <trkpt lat="47.74453" lon="0.48738">
        <ele>113</ele>
        <time>2020-04-02T08:59:57Z</time>
      </trkpt>
      <trkpt lat="47.74381" lon="0.48723">
        <ele>114</ele>
        <time>2020-04-02T09:01:34Z</time>
      </trkpt>
      <trkpt lat="47.74359" lon="0.4872">
        <ele>115</ele>
        <time>2020-04-02T09:02:03Z</time>
      </trkpt>
      <trkpt lat="47.74327" lon="0.48723">
        <ele>115</ele>
        <time>2020-04-02T09:02:46Z</time>
      </trkpt>
      <trkpt lat="47.74301" lon="0.48725">
        <ele>116</ele>
        <time>2020-04-02T09:03:21Z</time>
      </trkpt>
      <trkpt lat="47.7427" lon="0.48733">
        <ele>117</ele>
        <time>2020-04-02T09:04:03Z</time>
      </trkpt>
      <trkpt lat="47.74218" lon="0.48748">
        <ele>118</ele>
        <time>2020-04-02T09:05:13Z</time>
      </trkpt>
      <trkpt lat="47.74192" lon="0.48761">
        <ele>119</ele>
        <time>2020-04-02T09:05:50Z</time>
      </trkpt>
      <trkpt lat="47.74176" lon="0.48768">
        <ele>119</ele>
        <time>2020-04-02T09:06:12Z</time>
      </trkpt>
      <trkpt lat="47.74166" lon="0.48777">
        <ele>119</ele>
        <time>2020-04-02T09:06:28Z</time>
      </trkpt>
      <trkpt lat="47.74159" lon="0.48778">
        <ele>120</ele>
        <time>2020-04-02T09:06:37Z</time>
      </trkpt>
      <trkpt lat="47.74147" lon="0.48782">
        <ele>120</ele>
        <time>2020-04-02T09:06:54Z</time>
      </trkpt>
      <trkpt lat="47.74141" lon="0.48788">
        <ele>121</ele>
        <time>2020-04-02T09:07:03Z</time>
      </trkpt>
      <trkpt lat="47.74128" lon="0.48795">
        <ele>122</ele>
        <time>2020-04-02T09:07:22Z</time>
      </trkpt>
      <trkpt lat="47.74092" lon="0.4882">
        <ele>124</ele>
        <time>2020-04-02T09:08:15Z</time>
      </trkpt>
      <trkpt lat="47.74062" lon="0.48841">
        <ele>125</ele>
        <time>2020-04-02T09:08:59Z</time>
      </trkpt>
      <trkpt lat="47.74027" lon="0.48862">
        <ele>126</ele>
        <time>2020-04-02T09:09:49Z</time>
      </trkpt>
      <trkpt lat="47.74019" lon="0.48869">
        <ele>126</ele>
        <time>2020-04-02T09:10:02Z</time>
      </trkpt>
      <trkpt lat="47.73999" lon="0.48878">
        <ele>127</ele>
        <time>2020-04-02T09:10:30Z</time>
      </trkpt>
      <trkpt lat="47.73981" lon="0.48883">
        <ele>127</ele>
        <time>2020-04-02T09:10:54Z</time>
      </trkpt>
      <trkpt lat="47.73958" lon="0.48892">
        <ele>127</ele>
        <time>2020-04-02T09:11:26Z</time>
      </trkpt>
      <trkpt lat="47.7393" lon="0.48902">
        <ele>127</ele>
        <time>2020-04-02T09:12:04Z</time>
      </trkpt>
      <trkpt lat="47.73917" lon="0.48905">
        <ele>127</ele>
        <time>2020-04-02T09:12:22Z</time>
      </trkpt>
      <trkpt lat="47.73909" lon="0.48911">
        <ele>127</ele>
        <time>2020-04-02T09:12:34Z</time>
      </trkpt>
      <trkpt lat="47.73895" lon="0.4892">
        <ele>126</ele>
        <time>2020-04-02T09:12:54Z</time>
      </trkpt>
      <trkpt lat="47.73882" lon="0.4893">
        <ele>125</ele>
        <time>2020-04-02T09:13:14Z</time>
      </trkpt>
      <trkpt lat="47.73874" lon="0.48923">
        <ele>125</ele>
        <time>2020-04-02T09:13:26Z</time>
      </trkpt>
      <trkpt lat="47.73867" lon="0.48911">
        <ele>125</ele>
        <time>2020-04-02T09:13:40Z</time>
      </trkpt>
      <trkpt lat="47.7385" lon="0.4884">
        <ele>125</ele>
        <time>2020-04-02T09:14:48Z</time>
      </trkpt>
      <trkpt lat="47.73841" lon="0.48793">
        <ele>125</ele>
        <time>2020-04-02T09:15:32Z</time>
      </trkpt>
      <trkpt lat="47.73833" lon="0.48773">
        <ele>125</ele>
        <time>2020-04-02T09:15:53Z</time>
      </trkpt>
      <trkpt lat="47.73824" lon="0.48757">
        <ele>125</ele>
        <time>2020-04-02T09:16:11Z</time>
      </trkpt>
      <trkpt lat="47.73766" lon="0.48674">
        <ele>124</ele>
        <time>2020-04-02T09:17:59Z</time>
      </trkpt>
      <trkpt lat="47.73732" lon="0.48628">
        <ele>124</ele>
        <time>2020-04-02T09:19:00Z</time>
      </trkpt>
      <trkpt lat="47.7371" lon="0.48595">
        <ele>124</ele>
        <time>2020-04-02T09:19:42Z</time>
      </trkpt>
      <trkpt lat="47.73707" lon="0.48582">
        <ele>124</ele>
        <time>2020-04-02T09:19:54Z</time>
      </trkpt>
      <trkpt lat="47.73698" lon="0.48587">
        <ele>124</ele>
        <time>2020-04-02T09:20:07Z</time>
      </trkpt>
      <trkpt lat="47.73678" lon="0.48615">
        <ele>123</ele>
        <time>2020-04-02T09:20:44Z</time>
      </trkpt>
      <trkpt lat="47.73655" lon="0.48655">
        <ele>122</ele>
        <time>2020-04-02T09:21:31Z</time>
      </trkpt>
      <trkpt lat="47.73624" lon="0.48696">
        <ele>120</ele>
        <time>2020-04-02T09:22:26Z</time>
      </trkpt>
      <trkpt lat="47.73595" lon="0.4874">
        <ele>118</ele>
        <time>2020-04-02T09:23:22Z</time>
      </trkpt>
      <trkpt lat="47.73539" lon="0.48836">
        <ele>104</ele>
        <time>2020-04-02T09:25:16Z</time>
      </trkpt>
      <trkpt lat="47.73524" lon="0.48861">
        <ele>101</ele>
        <time>2020-04-02T09:25:46Z</time>
      </trkpt>
      <trkpt lat="47.7352" lon="0.48875">
        <ele>100</ele>
        <time>2020-04-02T09:25:59Z</time>
      </trkpt>
      <trkpt lat="47.73509" lon="0.48915">
        <ele>97</ele>
        <time>2020-04-02T09:26:38Z</time>
      </trkpt>
      <trkpt lat="47.73506" lon="0.48942">
        <ele>96</ele>
        <time>2020-04-02T09:27:03Z</time>
      </trkpt>
      <trkpt lat="47.73504" lon="0.48967">
        <ele>95</ele>
        <time>2020-04-02T09:27:25Z</time>
      </trkpt>
      <trkpt lat="47.73505" lon="0.48982">
        <ele>95</ele>
        <time>2020-04-02T09:27:39Z</time>
      </trkpt>
      <trkpt lat="47.73502" lon="0.48988">
        <ele>95</ele>
        <time>2020-04-02T09:27:45Z</time>
      </trkpt>
      <trkpt lat="47.73478" lon="0.49034">
        <ele>91</ele>
        <time>2020-04-02T09:28:38Z</time>
      </trkpt>
      <trkpt lat="47.73457" lon="0.4907">
        <ele>88</ele>
        <time>2020-04-02T09:29:21Z</time>
      </trkpt>
      <trkpt lat="47.73432" lon="0.49115">
        <ele>86</ele>
        <time>2020-04-02T09:30:13Z</time>
      </trkpt>
      <trkpt lat="47.73417" lon="0.49133">
        <ele>84</ele>
        <time>2020-04-02T09:30:39Z</time>
      </trkpt>
      <trkpt lat="47.7338" lon="0.4917">
        <ele>82</ele>
        <time>2020-04-02T09:31:38Z</time>
      </trkpt>
      <trkpt lat="47.73355" lon="0.49196">
        <ele>80</ele>
        <time>2020-04-02T09:32:19Z</time>
      </trkpt>
      <trkpt lat="47.73327" lon="0.49219">
        <ele>79</ele>
        <time>2020-04-02T09:33:02Z</time>
      </trkpt>
      <trkpt lat="47.73259" lon="0.49281">
        <ele>75</ele>
        <time>2020-04-02T09:34:48Z</time>
      </trkpt>
      <trkpt lat="47.73217" lon="0.49323">
        <ele>72</ele>
        <time>2020-04-02T09:35:56Z</time>
      </trkpt>
      <trkpt lat="47.73148" lon="0.49379">
        <ele>68</ele>
        <time>2020-04-02T09:37:40Z</time>
      </trkpt>
      <trkpt lat="47.73129" lon="0.49399">
        <ele>66</ele>
        <time>2020-04-02T09:38:11Z</time>
      </trkpt>
      <trkpt lat="47.73121" lon="0.4941">
        <ele>65</ele>
        <time>2020-04-02T09:38:26Z</time>
      </trkpt>
      <trkpt lat="47.7312" lon="0.49456">
        <ele>65</ele>
        <time>2020-04-02T09:39:07Z</time>
      </trkpt>
      <trkpt lat="47.73117" lon="0.49511">
        <ele>64</ele>
        <time>2020-04-02T09:39:57Z</time>
      </trkpt>
      <trkpt lat="47.73116" lon="0.49547">
        <ele>63</ele>
        <time>2020-04-02T09:40:29Z</time>
      </trkpt>
      <trkpt lat="47.73114" lon="0.49562">
        <ele>62</ele>
        <time>2020-04-02T09:40:43Z</time>
      </trkpt>
      <trkpt lat="47.73111" lon="0.49568">
        <ele>62</ele>
        <time>2020-04-02T09:40:50Z</time>
      </trkpt>
      <trkpt lat="47.73078" lon="0.49608">
        <ele>59</ele>
        <time>2020-04-02T09:41:46Z</time>
      </trkpt>
      <trkpt lat="47.73031" lon="0.49667">
        <ele>56</ele>
        <time>2020-04-02T09:43:09Z</time>
      </trkpt>
      <trkpt lat="47.72976" lon="0.49743">
        <ele>55</ele>
        <time>2020-04-02T09:44:49Z</time>
      </trkpt>
      <trkpt lat="47.72936" lon="0.49791">
        <ele>54</ele>
        <time>2020-04-02T09:45:57Z</time>
      </trkpt>
      <trkpt lat="47.72929" lon="0.49803">
        <ele>54</ele>
        <time>2020-04-02T09:46:12Z</time>
      </trkpt>
      <trkpt lat="47.72926" lon="0.49815">
        <ele>53</ele>
        <time>2020-04-02T09:46:23Z</time>
      </trkpt>
      <trkpt lat="47.72926" lon="0.49834">
        <ele>53</ele>
        <time>2020-04-02T09:46:40Z</time>
      </trkpt>
      <trkpt lat="47.7293" lon="0.49879">
        <ele>53</ele>
        <time>2020-04-02T09:47:21Z</time>
      </trkpt>
      <trkpt lat="47.72936" lon="0.49922">
        <ele>52</ele>
        <time>2020-04-02T09:48:00Z</time>
      </trkpt>
      <trkpt lat="47.72942" lon="0.49973">
        <ele>53</ele>
        <time>2020-04-02T09:48:47Z</time>
      </trkpt>
      <trkpt lat="47.72953" lon="0.5004">
        <ele>53</ele>
        <time>2020-04-02T09:49:49Z</time>
      </trkpt>
      <trkpt lat="47.72963" lon="0.50095">
        <ele>53</ele>
        <time>2020-04-02T09:50:40Z</time>
      </trkpt>
      <trkpt lat="47.72969" lon="0.50118">
        <ele>53</ele>
        <time>2020-04-02T09:51:02Z</time>
      </trkpt>
      <trkpt lat="47.72981" lon="0.50145">
        <ele>53</ele>
        <time>2020-04-02T09:51:31Z</time>
      </trkpt>
      <trkpt lat="47.73027" lon="0.50243">
        <ele>54</ele>
        <time>2020-04-02T09:53:18Z</time>
      </trkpt>
      <trkpt lat="47.7307" lon="0.50341">
        <ele>54</ele>
        <time>2020-04-02T09:55:03Z</time>
      </trkpt>
      <trkpt lat="47.73085" lon="0.50375">
        <ele>54</ele>
        <time>2020-04-02T09:55:40Z</time>
      </trkpt>
      <trkpt lat="47.73097" lon="0.50396">
        <ele>54</ele>
        <time>2020-04-02T09:56:05Z</time>
      </trkpt>
      <trkpt lat="47.73106" lon="0.50413">
        <ele>54</ele>
        <time>2020-04-02T09:56:24Z</time>
      </trkpt>
      <trkpt lat="47.73111" lon="0.50431">
        <ele>54</ele>
        <time>2020-04-02T09:56:41Z</time>
      </trkpt>
      <trkpt lat="47.73111" lon="0.50438">
        <ele>54</ele>
        <time>2020-04-02T09:56:48Z</time>
      </trkpt>
      <trkpt lat="47.73105" lon="0.50447">
        <ele>54</ele>
        <time>2020-04-02T09:56:59Z</time>
      </trkpt>
      <trkpt lat="47.73094" lon="0.50458">
        <ele>54</ele>
        <time>2020-04-02T09:57:17Z</time>
      </trkpt>
      <trkpt lat="47.73094" lon="0.50466">
        <ele>53</ele>
        <time>2020-04-02T09:57:24Z</time>
      </trkpt>
      <trkpt lat="47.73112" lon="0.50506">
        <ele>53</ele>
        <time>2020-04-02T09:58:07Z</time>
      </trkpt>
      <trkpt lat="47.73131" lon="0.50555">
        <ele>53</ele>
        <time>2020-04-02T09:58:58Z</time>
      </trkpt>
      <trkpt lat="47.73154" lon="0.50624">
        <ele>54</ele>
        <time>2020-04-02T10:00:07Z</time>
      </trkpt>
      <trkpt lat="47.73167" lon="0.50665">
        <ele>55</ele>
        <time>2020-04-02T10:00:48Z</time>
      </trkpt>
      <trkpt lat="47.73172" lon="0.50694">
        <ele>55</ele>
        <time>2020-04-02T10:01:15Z</time>
      </trkpt>
      <trkpt lat="47.73174" lon="0.50713">
        <ele>54</ele>
        <time>2020-04-02T10:01:32Z</time>
      </trkpt>
      <trkpt lat="47.73173" lon="0.50738">
        <ele>54</ele>
        <time>2020-04-02T10:01:54Z</time>
      </trkpt>
      <trkpt lat="47.7317" lon="0.50755">
        <ele>54</ele>
        <time>2020-04-02T10:02:10Z</time>
      </trkpt>
      <trkpt lat="47.73162" lon="0.50776">
        <ele>54</ele>
        <time>2020-04-02T10:02:32Z</time>
      </trkpt>
      <trkpt lat="47.73135" lon="0.50822">
        <ele>54</ele>
        <time>2020-04-02T10:03:27Z</time>
      </trkpt>
      <trkpt lat="47.73133" lon="0.50829">
        <ele>54</ele>
        <time>2020-04-02T10:03:33Z</time>
      </trkpt>
      <trkpt lat="47.73132" lon="0.50839">
        <ele>54</ele>
        <time>2020-04-02T10:03:42Z</time>
      </trkpt>
      <trkpt lat="47.73133" lon="0.50845">
        <ele>54</ele>
        <time>2020-04-02T10:03:48Z</time>
      </trkpt>
      <trkpt lat="47.73144" lon="0.50898">
        <ele>54</ele>
        <time>2020-04-02T10:04:38Z</time>
      </trkpt>
      <trkpt lat="47.7316" lon="0.50963">
        <ele>54</ele>
        <time>2020-04-02T10:05:40Z</time>
      </trkpt>
      <trkpt lat="47.73171" lon="0.51005">
        <ele>54</ele>
        <time>2020-04-02T10:06:20Z</time>
      </trkpt>
      <trkpt lat="47.73178" lon="0.51044">
        <ele>54</ele>
        <time>2020-04-02T10:06:57Z</time>
      </trkpt>
      <trkpt lat="47.73188" lon="0.51078">
        <ele>54</ele>
        <time>2020-04-02T10:07:30Z</time>
      </trkpt>
      <trkpt lat="47.73203" lon="0.51135">
        <ele>53</ele>
        <time>2020-04-02T10:08:25Z</time>
      </trkpt>
      <trkpt lat="47.73224" lon="0.51199">
        <ele>53</ele>
        <time>2020-04-02T10:09:29Z</time>
      </trkpt>
      <trkpt lat="47.7325" lon="0.51277">
        <ele>53</ele>
        <time>2020-04-02T10:10:47Z</time>
      </trkpt>
      <trkpt lat="47.73262" lon="0.51308">
        <ele>52</ele>
        <time>2020-04-02T10:11:19Z</time>
      </trkpt>
      <trkpt lat="47.73271" lon="0.51334">
        <ele>52</ele>
        <time>2020-04-02T10:11:45Z</time>
      </trkpt>
      <trkpt lat="47.73275" lon="0.51342">
        <ele>52</ele>
        <time>2020-04-02T10:11:54Z</time>
      </trkpt>
      <trkpt lat="47.73286" lon="0.51358">
        <ele>52</ele>
        <time>2020-04-02T10:12:15Z</time>
      </trkpt>
      <trkpt lat="47.73292" lon="0.51372">
        <ele>52</ele>
        <time>2020-04-02T10:12:30Z</time>
      </trkpt>
      <trkpt lat="47.73303" lon="0.51393">
        <ele>52</ele>
        <time>2020-04-02T10:12:54Z</time>
      </trkpt>
      <trkpt lat="47.73309" lon="0.51407">
        <ele>52</ele>
        <time>2020-04-02T10:13:08Z</time>
      </trkpt>
      <trkpt lat="47.73317" lon="0.51415">
        <ele>52</ele>
        <time>2020-04-02T10:13:21Z</time>
      </trkpt>
      <trkpt lat="47.7332" lon="0.51417">
        <ele>52</ele>
        <time>2020-04-02T10:13:26Z</time>
      </trkpt>
      <trkpt lat="47.73328" lon="0.51418">
        <ele>52</ele>
        <time>2020-04-02T10:13:36Z</time>
      </trkpt>
      <trkpt lat="47.73337" lon="0.51418">
        <ele>52</ele>
        <time>2020-04-02T10:13:48Z</time>
      </trkpt>
      <trkpt lat="47.73342" lon="0.51418">
        <ele>52</ele>
        <time>2020-04-02T10:13:55Z</time>
      </trkpt>
      <trkpt lat="47.73355" lon="0.51413">
        <ele>52</ele>
        <time>2020-04-02T10:14:13Z</time>
      </trkpt>
      <trkpt lat="47.73372" lon="0.51402">
        <ele>52</ele>
        <time>2020-04-02T10:14:38Z</time>
      </trkpt>
      <trkpt lat="47.7338" lon="0.51397">
        <ele>52</ele>
        <time>2020-04-02T10:14:49Z</time>
      </trkpt>
      <trkpt lat="47.73387" lon="0.51394">
        <ele>52</ele>
        <time>2020-04-02T10:14:59Z</time>
      </trkpt>
      <trkpt lat="47.73389" lon="0.51392">
        <ele>52</ele>
        <time>2020-04-02T10:15:02Z</time>
      </trkpt>
      <trkpt lat="47.73389" lon="0.51389">
        <ele>52</ele>
        <time>2020-04-02T10:15:05Z</time>
      </trkpt>
      <trkpt lat="47.73387" lon="0.51375">
        <ele>53</ele>
        <time>2020-04-02T10:15:18Z</time>
      </trkpt>
      <trkpt lat="47.73385" lon="0.51365">
        <ele>53</ele>
        <time>2020-04-02T10:15:27Z</time>
      </trkpt>
      <trkpt lat="47.73376" lon="0.51324">
        <ele>53</ele>
        <time>2020-04-02T10:16:06Z</time>
      </trkpt>
      <trkpt lat="47.73369" lon="0.51298">
        <ele>53</ele>
        <time>2020-04-02T10:16:31Z</time>
      </trkpt>
      <trkpt lat="47.73363" lon="0.51273">
        <ele>53</ele>
        <time>2020-04-02T10:16:55Z</time>
      </trkpt>
      <trkpt lat="47.73359" lon="0.51265">
        <ele>53</ele>
        <time>2020-04-02T10:17:04Z</time>
      </trkpt>
      <trkpt lat="47.73356" lon="0.51257">
        <ele>53</ele>
        <time>2020-04-02T10:17:12Z</time>
      </trkpt>
      <trkpt lat="47.7335" lon="0.51249">
        <ele>54</ele>
        <time>2020-04-02T10:17:23Z</time>
      </trkpt>
      <trkpt lat="47.73336" lon="0.51235">
        <ele>54</ele>
        <time>2020-04-02T10:17:45Z</time>
      </trkpt>
      <trkpt lat="47.73333" lon="0.51232">
        <ele>54</ele>
        <time>2020-04-02T10:17:50Z</time>
      </trkpt>
      <trkpt lat="47.73331" lon="0.51225">
        <ele>54</ele>
        <time>2020-04-02T10:17:57Z</time>
      </trkpt>
      <trkpt lat="47.7333" lon="0.51219">
        <ele>54</ele>
        <time>2020-04-02T10:18:02Z</time>
      </trkpt>
      <trkpt lat="47.73336" lon="0.51208">
        <ele>54</ele>
        <time>2020-04-02T10:18:15Z</time>
      </trkpt>
      <trkpt lat="47.73344" lon="0.51201">
        <ele>54</ele>
        <time>2020-04-02T10:18:28Z</time>
      </trkpt>
      <trkpt lat="47.73375" lon="0.51175">
        <ele>54</ele>
        <time>2020-04-02T10:19:15Z</time>
      </trkpt>
      <trkpt lat="47.73391" lon="0.51167">
        <ele>54</ele>
        <time>2020-04-02T10:19:38Z</time>
      </trkpt>
      <trkpt lat="47.734" lon="0.51167">
        <ele>54</ele>
        <time>2020-04-02T10:19:50Z</time>
      </trkpt>
      <trkpt lat="47.73404" lon="0.51169">
        <ele>54</ele>
        <time>2020-04-02T10:19:55Z</time>
      </trkpt>
      <trkpt lat="47.73408" lon="0.51178">
        <ele>54</ele>
        <time>2020-04-02T10:20:05Z</time>
      </trkpt>
      <trkpt lat="47.73417" lon="0.51175">
        <ele>54</ele>
        <time>2020-04-02T10:20:17Z</time>
      </trkpt>
      <trkpt lat="47.73433" lon="0.51171">
        <ele>54</ele>
        <time>2020-04-02T10:20:39Z</time>
      </trkpt>
      <trkpt lat="47.73452" lon="0.5116">
        <ele>54</ele>
        <time>2020-04-02T10:21:06Z</time>
      </trkpt>
      <trkpt lat="47.73476" lon="0.51143">
        <ele>55</ele>
        <time>2020-04-02T10:21:42Z</time>
      </trkpt>
      <trkpt lat="47.73501" lon="0.51131">
        <ele>55</ele>
        <time>2020-04-02T10:22:17Z</time>
      </trkpt>
      <trkpt lat="47.73507" lon="0.51126">
        <ele>55</ele>
        <time>2020-04-02T10:22:26Z</time>
      </trkpt>
      <trkpt lat="47.73593" lon="0.51012">
        <ele>55</ele>
        <time>2020-04-02T10:25:00Z</time>
      </trkpt>
      <trkpt lat="47.73641" lon="0.50945">
        <ele>56</ele>
        <time>2020-04-02T10:26:27Z</time>
      </trkpt>
      <trkpt lat="47.73648" lon="0.50938">
        <ele>56</ele>
        <time>2020-04-02T10:26:39Z</time>
      </trkpt>
      <trkpt lat="47.73656" lon="0.50939">
        <ele>56</ele>
        <time>2020-04-02T10:26:49Z</time>
      </trkpt>
      <trkpt lat="47.73656" lon="0.50939">
        <ele>56</ele>
        <time>2020-04-02T10:26:49Z</time>
      </trkpt>
      <trkpt lat="47.73703" lon="0.50972">
        <ele>57</ele>
        <time>2020-04-02T10:27:59Z</time>
      </trkpt>
      <trkpt lat="47.73704" lon="0.50983">
        <ele>57</ele>
        <time>2020-04-02T10:28:09Z</time>
      </trkpt>
      <trkpt lat="47.73767" lon="0.51062">
        <ele>57</ele>
        <time>2020-04-02T10:29:59Z</time>
      </trkpt>
      <trkpt lat="47.73813" lon="0.51112">
        <ele>57</ele>
        <time>2020-04-02T10:31:15Z</time>
      </trkpt>
      <trkpt lat="47.73849" lon="0.51158">
        <ele>57</ele>
        <time>2020-04-02T10:32:18Z</time>
      </trkpt>
      <trkpt lat="47.73867" lon="0.51176">
        <ele>58</ele>
        <time>2020-04-02T10:32:47Z</time>
      </trkpt>
      <trkpt lat="47.73866" lon="0.51183">
        <ele>58</ele>
        <time>2020-04-02T10:32:53Z</time>
      </trkpt>
      <trkpt lat="47.73871" lon="0.51199">
        <ele>58</ele>
        <time>2020-04-02T10:33:09Z</time>
      </trkpt>
      <trkpt lat="47.73878" lon="0.51211">
        <ele>58</ele>
        <time>2020-04-02T10:33:24Z</time>
      </trkpt>
      <trkpt lat="47.73882" lon="0.5122">
        <ele>57</ele>
        <time>2020-04-02T10:33:33Z</time>
      </trkpt>
      <trkpt lat="47.73898" lon="0.51238">
        <ele>57</ele>
        <time>2020-04-02T10:34:00Z</time>
      </trkpt>
      <trkpt lat="47.73908" lon="0.5125">
        <ele>57</ele>
        <time>2020-04-02T10:34:17Z</time>
      </trkpt>
      <trkpt lat="47.7392" lon="0.5126">
        <ele>57</ele>
        <time>2020-04-02T10:34:35Z</time>
      </trkpt>
      <trkpt lat="47.73927" lon="0.51267">
        <ele>57</ele>
        <time>2020-04-02T10:34:47Z</time>
      </trkpt>
      <trkpt lat="47.73929" lon="0.51271">
        <ele>57</ele>
        <time>2020-04-02T10:34:51Z</time>
      </trkpt>
      <trkpt lat="47.7393" lon="0.51297">
        <ele>57</ele>
        <time>2020-04-02T10:35:15Z</time>
      </trkpt>
      <trkpt lat="47.73929" lon="0.51318">
        <ele>57</ele>
        <time>2020-04-02T10:35:33Z</time>
      </trkpt>
      <trkpt lat="47.73925" lon="0.51333">
        <ele>57</ele>
        <time>2020-04-02T10:35:48Z</time>
      </trkpt>
      <trkpt lat="47.73923" lon="0.51345">
        <ele>56</ele>
        <time>2020-04-02T10:35:59Z</time>
      </trkpt>
      <trkpt lat="47.73924" lon="0.51353">
        <ele>56</ele>
        <time>2020-04-02T10:36:06Z</time>
      </trkpt>
      <trkpt lat="47.73928" lon="0.51371">
        <ele>57</ele>
        <time>2020-04-02T10:36:23Z</time>
      </trkpt>
      <trkpt lat="47.73933" lon="0.51399">
        <ele>57</ele>
        <time>2020-04-02T10:36:49Z</time>
      </trkpt>
      <trkpt lat="47.73936" lon="0.51418">
        <ele>57</ele>
        <time>2020-04-02T10:37:07Z</time>
      </trkpt>
      <trkpt lat="47.73949" lon="0.51419">
        <ele>58</ele>
        <time>2020-04-02T10:37:24Z</time>
      </trkpt>
      <trkpt lat="47.73951" lon="0.51385">
        <ele>58</ele>
        <time>2020-04-02T10:37:55Z</time>
      </trkpt>
      <trkpt lat="47.73954" lon="0.51374">
        <ele>58</ele>
        <time>2020-04-02T10:38:06Z</time>
      </trkpt>
      <trkpt lat="47.7396" lon="0.51375">
        <ele>59</ele>
        <time>2020-04-02T10:38:14Z</time>
      </trkpt>
      <trkpt lat="47.73968" lon="0.51378">
        <ele>59</ele>
        <time>2020-04-02T10:38:25Z</time>
      </trkpt>
      <trkpt lat="47.73978" lon="0.51384">
        <ele>60</ele>
        <time>2020-04-02T10:38:39Z</time>
      </trkpt>
      <trkpt lat="47.73983" lon="0.51386">
        <ele>60</ele>
        <time>2020-04-02T10:38:46Z</time>
      </trkpt>
      <trkpt lat="47.7399" lon="0.51385">
        <ele>60</ele>
        <time>2020-04-02T10:38:55Z</time>
      </trkpt>
      <trkpt lat="47.74029" lon="0.51373">
        <ele>62</ele>
        <time>2020-04-02T10:39:48Z</time>
      </trkpt>
      <trkpt lat="47.74039" lon="0.51372">
        <ele>63</ele>
        <time>2020-04-02T10:40:02Z</time>
      </trkpt>
      <trkpt lat="47.74045" lon="0.51375">
        <ele>63</ele>
        <time>2020-04-02T10:40:10Z</time>
      </trkpt>
      <trkpt lat="47.74051" lon="0.51388">
        <ele>63</ele>
        <time>2020-04-02T10:40:24Z</time>
      </trkpt>
      <trkpt lat="47.74055" lon="0.51403">
        <ele>63</ele>
        <time>2020-04-02T10:40:39Z</time>
      </trkpt>
      <trkpt lat="47.74055" lon="0.51414">
        <ele>63</ele>
        <time>2020-04-02T10:40:49Z</time>
      </trkpt>
      <trkpt lat="47.74054" lon="0.51424">
        <ele>63</ele>
        <time>2020-04-02T10:40:58Z</time>
      </trkpt>
      <trkpt lat="47.74063" lon="0.51426">
        <ele>63</ele>
        <time>2020-04-02T10:41:10Z</time>
      </trkpt>
      <trkpt lat="47.74121" lon="0.51428">
        <ele>66</ele>
        <time>2020-04-02T10:42:27Z</time>
      </trkpt>
      <trkpt lat="47.74134" lon="0.51429">
        <ele>67</ele>
        <time>2020-04-02T10:42:45Z</time>
      </trkpt>
      <trkpt lat="47.74144" lon="0.51482">
        <ele>67</ele>
        <time>2020-04-02T10:43:34Z</time>
      </trkpt>
      <trkpt lat="47.74125" lon="0.51492">
        <ele>66</ele>
        <time>2020-04-02T10:44:01Z</time>
      </trkpt>
      <trkpt lat="47.74115" lon="0.51462">
        <ele>65</ele>
        <time>2020-04-02T10:44:31Z</time>
      </trkpt>
    </trkseg>
  </trk>
</gpx>